Aviation Digital Data Service (ADDS)

Output produced by TAFs form (0751 UTC 23 April 2018)
found at http://aviationweather.gov/adds/tafs/
 
METAR text: RJFK 230700Z 12007KT 090V160 9999 FEW010 BKN025 BKN080 21/15 Q1015 RMK 1CU010 6CU025 7AC080 A2998 VOLCANIC ASH CLOUD S
Conditions at: RJFK (KAGOSHIMA AIRPOR, JP) observed 0700 UTC 23 April 2018
Temperature: 21.0°C (70°F)
Dewpoint: 15.0°C (59°F) [RH = 69%]
Pressure (altimeter): 29.97 inches Hg (1015.0 mb)
Winds: from the ESE (120 degrees) at 8 MPH (7 knots; 3.6 m/s)
Visibility: 6 or more miles (10+ km)
Ceiling: 2500 feet AGL
Clouds: few clouds at 1000 feet AGL
broken clouds at 2500 feet AGL
broken clouds at 8000 feet AGL
Weather: no significant weather observed at this time

Forecast for: RJFK (KAGOSHIMA AIRPOR, JP)
Text: TAF RJFK 230505Z 2306/2412 13008KT 9999 VA FEW010 BKN025
Forecast period: 0600 to 2100 UTC 23 April 2018
Forecast type: FROM: standard forecast or significant change
Winds: from the SE (130 degrees) at 9 MPH (8 knots; 4.2 m/s)
Visibility: 6 or more miles (10+ km)
Ceiling: 2500 feet AGL
Clouds: few clouds at 1000 feet AGL
broken clouds at 2500 feet AGL
Weather: VA  (volcanic ash)
Forecast for: RJFK (KAGOSHIMA AIRPOR, JP)
Text: TAF RJFK 230505Z 2306/2412 13008KT 9999 VA FEW010 BKN025
Forecast period: 0600 to 2100 UTC 23 April 2018
Forecast type: FROM: standard forecast or significant change
Winds: from the SE (130 degrees) at 9 MPH (8 knots; 4.2 m/s)
Visibility: 6 or more miles (10+ km)
Ceiling: 2500 feet AGL
Clouds: few clouds at 1000 feet AGL
broken clouds at 2500 feet AGL
Weather: VA  (volcanic ash)
Forecast for: RJFK (KAGOSHIMA AIRPOR, JP)
Text: TAF RJFK 230505Z 2306/2412 13008KT 9999 VA FEW010 BKN025
Forecast period: 1500 to 2100 UTC 23 April 2018
Forecast type: TEMPORARY: The following changes expected for less than half the time period
Visibility: 1.86 miles (2.99 km)
Ceiling: 500 feet AGL
Clouds: few clouds at 200 feet AGL
broken clouds at 500 feet AGL
broken clouds at 800 feet AGL
Weather: SHRA BR  (rain showers, mist)
Forecast for: RJFK (KAGOSHIMA AIRPOR, JP)
Text: TAF RJFK 230505Z 2306/2412 13008KT 9999 VA FEW010 BKN025
Forecast period: 1500 to 2100 UTC 23 April 2018
Forecast type: TEMPORARY: The following changes expected for less than half the time period
Visibility: 1.86 miles (2.99 km)
Ceiling: 500 feet AGL
Clouds: few clouds at 200 feet AGL
broken clouds at 500 feet AGL
broken clouds at 800 feet AGL
Weather: SHRA BR  (rain showers, mist)
Forecast for: RJFK (KAGOSHIMA AIRPOR, JP)
Text: TAF RJFK 230505Z 2306/2412 13008KT 9999 VA FEW010 BKN025
Forecast period: 2100 UTC 23 April 2018 to 1200 UTC 24 April 2018
Forecast type: BECOMING: Conditions expected to become as follows by 0000 UTC 24 April 2018
Winds: from the S (190 degrees) at 12 MPH (10 knots; 5.2 m/s)
Visibility: 6 or more miles (10+ km)
Ceiling: 2500 feet AGL
Clouds: few clouds at 1000 feet AGL
broken clouds at 2500 feet AGL
Weather: VA  (volcanic ash)
Forecast for: RJFK (KAGOSHIMA AIRPOR, JP)
Text: TAF RJFK 230505Z 2306/2412 13008KT 9999 VA FEW010 BKN025
Forecast period: 2100 UTC 23 April 2018 to 1200 UTC 24 April 2018
Forecast type: BECOMING: Conditions expected to become as follows by 0000 UTC 24 April 2018
Winds: from the S (190 degrees) at 12 MPH (10 knots; 5.2 m/s)
Visibility: 6 or more miles (10+ km)
Ceiling: 2500 feet AGL
Clouds: few clouds at 1000 feet AGL
broken clouds at 2500 feet AGL
Weather: VA  (volcanic ash)
Forecast for: RJFK (KAGOSHIMA AIRPOR, JP)
Text: TAF RJFK 230505Z 2306/2412 13008KT 9999 VA FEW010 BKN025
Forecast period: 2100 UTC 23 April 2018 to 0300 UTC 24 April 2018
Forecast type: TEMPORARY: The following changes expected for less than half the time period
Visibility: 0.93 miles (1.50 km)
Ceiling: 500 feet AGL
Clouds: few clouds at 200 feet AGL
broken clouds at 500 feet AGL
broken clouds at 800 feet AGL
Weather: SHRA BR  (rain showers, mist)
Forecast for: RJFK (KAGOSHIMA AIRPOR, JP)
Text: TAF RJFK 230505Z 2306/2412 13008KT 9999 VA FEW010 BKN025
Forecast period: 2100 UTC 23 April 2018 to 0300 UTC 24 April 2018
Forecast type: TEMPORARY: The following changes expected for less than half the time period
Visibility: 0.93 miles (1.50 km)
Ceiling: 500 feet AGL
Clouds: few clouds at 200 feet AGL
broken clouds at 500 feet AGL
broken clouds at 800 feet AGL
Weather: SHRA BR  (rain showers, mist)
Forecast for: RJFK (KAGOSHIMA AIRPOR, JP)
Text: TAF RJFK 230505Z 2306/2412 13008KT 9999 VA FEW010 BKN025
Forecast period: 0300 to 0900 UTC 24 April 2018
Forecast type: TEMPORARY: The following changes expected for less than half the time period
Visibility: 0.93 miles (1.50 km)
Ceiling: 500 feet AGL
Clouds: few clouds at 200 feet AGL
broken clouds at 500 feet AGL
broken clouds at 800 feet AGL
Weather: TSRA BR  (rain associated with thunderstorm(s), mist)
Forecast for: RJFK (KAGOSHIMA AIRPOR, JP)
Text: TAF RJFK 230505Z 2306/2412 13008KT 9999 VA FEW010 BKN025
Forecast period: 0300 to 0900 UTC 24 April 2018
Forecast type: TEMPORARY: The following changes expected for less than half the time period
Visibility: 0.93 miles (1.50 km)
Ceiling: 500 feet AGL
Clouds: few clouds at 200 feet AGL
broken clouds at 500 feet AGL
broken clouds at 800 feet AGL
Weather: TSRA BR  (rain associated with thunderstorm(s), mist)
Forecast for: RJFK (KAGOSHIMA AIRPOR, JP)
Text: TAF RJFK 230505Z 2306/2412 13008KT 9999 VA FEW010 BKN025
Forecast period: 0900 to 1200 UTC 24 April 2018
Forecast type: TEMPORARY: The following changes expected for less than half the time period
Visibility: 0.93 miles (1.50 km)
Ceiling: 500 feet AGL
Clouds: few clouds at 200 feet AGL
broken clouds at 500 feet AGL
broken clouds at 800 feet AGL
Weather: SHRA BR  (rain showers, mist)
Forecast for: RJFK (KAGOSHIMA AIRPOR, JP)
Text: TAF RJFK 230505Z 2306/2412 13008KT 9999 VA FEW010 BKN025
Forecast period: 0900 to 1200 UTC 24 April 2018
Forecast type: TEMPORARY: The following changes expected for less than half the time period
Visibility: 0.93 miles (1.50 km)
Ceiling: 500 feet AGL
Clouds: few clouds at 200 feet AGL
broken clouds at 500 feet AGL
broken clouds at 800 feet AGL
Weather: SHRA BR  (rain showers, mist)